Flight Track Log - Related Links

Times and Time Zones

All times are in EST time to prevent confusion due to time zone crossing. See the FLG3757 flight status page for this flight to view local times or setup timezone preferences in your user account.

Time Position Orientation Groundspeed Altitude Reporting Facility
EST Latitude Longitude Course Direction KTS MPH feet Rate Location/Type
Sat 06:23:24 42.1431 -76.0092 292° West 157 181 5,200  Level New York Center
Sat 06:24:24 42.1703 -76.1011 292° West 169 194 7,300 2,500 Climbing New York Center
Sat 06:25:24 42.2011 -76.1986 293° West 225 259 10,200 2,250 Climbing New York Center
Sat 06:26:24 42.2356 -76.3108 293° West 265 305 11,800 2,255 Climbing New York Center
Sat 06:27:45 42.2828 -76.4536 294° West 340 391 15,500 2,577 Climbing Cleveland Center
Sat 06:28:46 42.3197 -76.5725 293° West 343 395 17,900 2,380 Climbing Cleveland Center
Sat 06:29:46 42.3564 -76.6933 292° West 347 399 20,300 2,231 Climbing Cleveland Center
Sat 06:30:47 42.3925 -76.8150 292° West 349 402 22,400 1,537 Climbing Cleveland Center
Sat 06:31:47 42.4297 -76.9383 292° West 352 405 23,400 1,041 Climbing Cleveland Center
Sat 06:32:48 42.4689 -77.0678 292° West 368 423 24,500 1,091 Climbing Cleveland Center
Sat 06:33:48 42.5075 -77.1983 292° West 373 429 25,600 992 Climbing Cleveland Center
Sat 06:34:49 42.5472 -77.3319 292° West 380 437 26,500 836 Climbing Cleveland Center
Sat 06:35:50 42.5894 -77.4747 292° West 385 443 27,300 744 Climbing Cleveland Center
Sat 06:36:50 42.6292 -77.6089 292° West 385 443 28,000 347 Climbing Cleveland Center
Sat 06:37:51 42.6675 -77.7456 291° West 386 444 28,000  Level Cleveland Center
Sat 06:38:51 42.7128 -77.8947 292° West 413 475 28,000  Level Cleveland Center
Sat 06:39:52 42.7539 -78.0367 292° West 405 466 28,000  Level Cleveland Center
Sat 06:40:52 42.7950 -78.1772 292° West 400 460 28,000  Level Cleveland Center
Sat 06:41:53 42.8342 -78.3167 291° West 396 456 28,000  Level Cleveland Center
Sat 06:42:54 42.8733 -78.4564 291° West 397 457 28,000  Level Cleveland Center
Sat 06:43:54 42.8925 -78.6000 280° West 394 453 28,000  Level Cleveland Center
Sat 06:44:55 42.8814 -78.7525 264° West 404 465 28,000  Level Cleveland Center
Sat 06:45:56 42.8675 -78.9411 264° West 417 480 28,000  Level Cleveland Center
Sat 06:46:56 42.8561 -79.0989 264° West 421 484 28,000  Level Cleveland Center
Sat 06:47:57 42.8442 -79.2600 264° West 428 493 28,000  Level Cleveland Center
Sat 06:48:58 42.8322 -79.4200 264° West 427 491 28,000  Level Cleveland Center
Sat 06:49:58 42.8200 -79.5789 264° West 422 486 28,000  Level Cleveland Center
Sat 06:50:59 42.8067 -79.7350 263° West 418 481 28,000  Level Cleveland Center
Sat 06:52:00 42.7931 -79.8936 263° West 422 486 28,000  Level Cleveland Center
Sat 06:53:01 42.7817 -80.0422 264° West 431 496 28,000  Level Cleveland Center
Sat 06:54:01 42.7664 -80.2011 263° West 423 487 28,000  Level Cleveland Center
Sat 06:55:02 42.7525 -80.3622 263° West 425 489 28,000  Level Cleveland Center
Sat 06:56:03 42.7361 -80.5517 263° West 429 494 28,000  Level Cleveland Center
Sat 06:57:04 42.7206 -80.7125 263° West 427 491 28,000  Level Cleveland Center
Sat 06:58:05 42.7072 -80.8764 264° West 432 497 28,000  Level Cleveland Center
Sat 06:59:07 42.6892 -81.0375 261° West 430 495 28,000 -298 Level Cleveland Center
Sat 07:00:06 42.6700 -81.1981 261° West 429 494 27,400 -1,200 Descending Cleveland Center
Sat 07:01:07 42.6517 -81.3589 261° West 428 493 25,600 -1,820 Descending Cleveland Center
Sat 07:02:08 42.6342 -81.5161 261° West 421 484 23,700 -1,820 Descending Cleveland Center
Sat 07:03:09 42.6158 -81.6669 261° West 407 468 21,900 -1,672 Descending Cleveland Center
Sat 07:04:10 42.6003 -81.7994 261° West 401 461 20,300 -1,587 Descending Cleveland Center
Sat 07:05:10 42.5833 -81.9444 261° West 393 452 18,700 -1,636 Descending Cleveland Center
Sat 07:06:11 42.5658 -82.0867 261° West 386 444 17,000 -1,574 Descending Cleveland Center
Sat 07:07:12 42.5483 -82.2267 260° West 381 438 15,500 -1,769 Descending Cleveland Center
Sat 07:07:29 42.5400 -82.2931 260° West 371 427 14,700 -2,348 Descending Cleveland Center
Sat 07:07:35 42.5394 -82.3044 266° West 371 427 14,600 -1,500 Descending Cleveland Center
Sat 07:08:13 42.5275 -82.3894 259° West 371 427 13,600 -1,574 Descending Cleveland Center
Sat 07:08:36 42.5217 -82.4408 261° West 365 420 13,000 -1,475 Descending Cleveland Center
Sat 07:09:14 42.5100 -82.5244 259° West 366 421 12,100 -984 Descending Cleveland Center
Sat 07:09:37 42.4975 -82.5736 251° West 366 421 12,000 -689 Descending Cleveland Center
Sat 07:10:15 42.4703 -82.6497 244° Southwest 365 420 11,400 -1,000 Descending Cleveland Center
Sat 07:10:37 42.4556 -82.6925 245° Southwest 343 395 11,000 -984 Descending Cleveland Center
Sat 07:11:16 42.4328 -82.7558 244° Southwest 322 371 10,400 -1,180 Descending Cleveland Center
Sat 07:11:38 42.4314 -82.7939 267° West 270 311 9,800 -1,800 Descending Cleveland Center
Sat 07:12:16 42.4319 -82.8575 271° West 282 325 8,600 -2,000 Descending Cleveland Center
Sat 07:12:38 42.4325 -82.8958 271° West 265 305 7,800 -1,869 Descending Cleveland Center
Sat 07:13:17 42.4353 -82.9564 274° West 270 311 6,700 -1,672 Descending Cleveland Center
Sat 07:13:39 42.4392 -83.0014 277° West 259 298 6,100 -689 Descending Cleveland Center
Sat 07:14:18 42.4269 -83.0428 248° West 249 287 6,000 -197 Descending Cleveland Center
Sat 07:14:40 42.4169 -83.0747 247° West 192 221 5,900 -787 Descending Cleveland Center
Sat 07:15:19 42.4047 -83.1075 243° Southwest 201 231 5,200 -1,400 Descending Cleveland Center
Sat 07:15:40 42.3936 -83.1364 242° Southwest 168 193 4,500 -1,279 Descending Cleveland Center
Sat 07:16:20 42.3831 -83.1642 243° Southwest 178 205 3,900 -1,180 Descending Cleveland Center
Sat 07:16:41 42.3703 -83.1953 241° Southwest 178 205 3,300 -885 Descending Cleveland Center
Sat 07:17:21 42.3614 -83.2219 246° West 174 200 3,000 -295 Descending Cleveland Center
Sat 07:17:42 42.3436 -83.2425 221° Southwest 177 204 3,000  Level Cleveland Center
Sat 07:18:22 42.3222 -83.2586 209° Southwest 177 204 3,000 -393 Level Cleveland Center
Sat 07:18:43 42.2992 -83.2758 209° Southwest 173 199 2,600 -787 Descending Cleveland Center
Sat 07:19:23 42.2811 -83.2894 209° Southwest 172 198 2,200 -800 Descending Cleveland Center
Sat 07:19:43 42.2636 -83.3019 208° Southwest 128 147 1,800 -689 Descending Cleveland Center
Sat 07:20:24 42.2508 -83.3125 211° Southwest 144 166 1,500 -689 Descending Cleveland Center
Sat 07:20:44 42.2347 -83.3233 206° Southwest 121 139 1,100 -295 Descending Cleveland Center
Sat 07:21:25 42.2175 -83.3350 207° Southwest 133 153 1,200 146 Climbing Cleveland Center
Sat 07:23:00 42.2000 -83.3500 236° Southwest  Level FlightAware Approximate
Sat 07:30:00 42.2124 -83.3534 236° Southwest  Level Estimated

Login

Don't have an account? Register now (free) for customized features, flight alerts, and more!